Time;durP1;ratioP1;P1;durP2;ratioP2;P2;SDS_P1;SDS_P2;PMS_P1;PMS_P2;Temp;Humidity;BMP_temperature;BMP_pressure;BME280_temperature;BME280_humidity;BME280_pressure;Samples;Min_cycle;Max_cycle;Signal;HPM_P1;HPM_P2
2021/12/11 00:00:28;;;;;;;41.67;20.20;;;;;;;3.58;96.68;100679.28;5042611;28;20060;-78
2021/12/11 00:03:19;;;;;;;34.47;19.23;;;;;;;3.59;96.60;100689.63;5041874;28;20193;-78
2021/12/11 00:05:51;;;;;;;36.83;20.35;;;;;;;3.59;96.42;100693.94;5067723;28;20032;-78
2021/12/11 00:08:20;;;;;;;42.25;21.40;;;;;;;3.61;96.49;100694.78;5060550;28;20220;-78
2021/12/11 00:10:48;;;;;;;39.25;20.02;;;;;;;3.61;96.55;100702.56;5042689;28;20334;-77
2021/12/11 00:13:17;;;;;;;40.65;21.17;;;;;;;3.62;96.59;100709.44;5042109;28;20239;-78
2021/12/11 00:15:44;;;;;;;40.50;21.73;;;;;;;3.63;96.60;100714.59;5066019;28;20044;-78
2021/12/11 00:18:20;;;;;;;42.03;20.55;;;;;;;3.64;96.77;100723.25;5060254;28;20415;-78
2021/12/11 00:21:07;;;;;;;38.63;20.50;;;;;;;3.64;96.70;100718.06;5074559;28;20050;-78
2021/12/11 00:23:49;;;;;;;36.65;20.30;;;;;;;3.66;96.72;100726.66;5059363;28;20047;-78
2021/12/11 00:26:21;;;;;;;41.95;21.15;;;;;;;3.65;96.62;100732.69;5060704;28;20373;-78
2021/12/11 00:28:48;;;;;;;35.67;19.70;;;;;;;3.68;96.72;100739.59;5060763;28;20070;-78
2021/12/11 00:31:14;;;;;;;37.92;20.40;;;;;;;3.67;96.70;100745.63;5060769;28;20066;-78
2021/12/11 00:33:39;;;;;;;40.53;21.42;;;;;;;3.67;96.82;100746.47;5076662;28;20045;-78
2021/12/11 00:36:13;;;;;;;45.03;22.30;;;;;;;3.68;96.68;100755.97;5061915;28;20035;-78
2021/12/11 00:38:39;;;;;;;41.28;21.20;;;;;;;3.69;96.75;100760.25;5077579;28;20040;-78
2021/12/11 00:41:05;;;;;;;35.70;20.77;;;;;;;3.69;96.63;100772.38;5078674;28;20032;-78
2021/12/11 00:43:34;;;;;;;40.60;22.65;;;;;;;3.69;96.73;100777.53;5041311;28;20278;-78
2021/12/11 00:46:00;;;;;;;42.00;21.80;;;;;;;3.70;96.75;100782.72;5058349;28;20047;-78
2021/12/11 00:48:26;;;;;;;42.45;22.63;;;;;;;3.70;96.76;100779.28;5043466;28;20444;-78
2021/12/11 00:51:12;;;;;;;39.05;21.83;;;;;;;3.71;96.88;100791.34;5074788;28;20224;-78
2021/12/11 00:53:43;;;;;;;44.63;20.67;;;;;;;3.72;96.77;100786.13;5071428;28;20386;-78
2021/12/11 00:56:32;;;;;;;43.58;21.52;;;;;;;3.73;96.74;100797.34;5078733;28;20095;-78
2021/12/11 00:59:00;;;;;;;44.38;21.85;;;;;;;3.73;96.77;100806.00;5057664;28;20111;-78
2021/12/11 01:01:56;;;;;;;37.70;20.77;;;;;;;3.73;96.81;100806.00;5058074;28;20064;-78
2021/12/11 01:04:26;;;;;;;38.35;21.13;;;;;;;3.74;96.92;100817.19;5052689;28;20036;-78
2021/12/11 01:06:52;;;;;;;35.33;19.67;;;;;;;3.75;96.83;100818.94;5077982;28;20050;-78
2021/12/11 01:09:24;;;;;;;36.08;19.77;;;;;;;3.75;96.94;100824.97;5074649;28;20036;-78
2021/12/11 01:12:01;;;;;;;36.80;20.60;;;;;;;3.74;96.90;100831.00;5078774;28;20307;-78
2021/12/11 01:14:37;;;;;;;38.13;19.33;;;;;;;3.75;96.86;100839.66;5071468;28;20103;-78
2021/12/11 01:17:07;;;;;;;36.92;18.77;;;;;;;3.75;96.92;100840.50;5062629;28;20033;-78
2021/12/11 01:19:37;;;;;;;;;;;;;;;3.76;96.90;100844.78;5073876;28;20063;-78
2021/12/11 01:22:10;;;;;;;39.03;19.35;;;;;;;3.76;97.04;100849.13;5075672;28;19957;-78
2021/12/11 01:24:42;;;;;;;38.72;19.40;;;;;;;3.76;97.08;100843.94;5069571;28;20040;-78
2021/12/11 01:27:08;;;;;;;39.72;20.95;;;;;;;3.76;97.02;100847.38;5062137;28;20078;-78
2021/12/11 01:29:34;;;;;;;39.65;20.90;;;;;;;3.77;96.95;100856.88;5060116;28;20247;-78
2021/12/11 01:31:59;;;;;;;40.03;20.80;;;;;;;3.77;96.91;100850.84;5078086;28;20036;-78
2021/12/11 01:34:26;;;;;;;37.95;20.48;;;;;;;3.76;97.05;100852.56;5036640;28;20028;-78
2021/12/11 01:36:52;;;;;;;35.00;19.90;;;;;;;3.78;97.04;100865.50;5053683;28;20033;-78
2021/12/11 01:39:20;;;;;;;36.85;19.95;;;;;;;3.76;96.91;100873.28;5061378;28;20317;-78
2021/12/11 01:41:46;;;;;;;38.37;20.10;;;;;;;3.77;96.92;100885.38;5044732;28;20220;-78
2021/12/11 01:44:19;;;;;;;39.78;20.45;;;;;;;3.76;96.82;100873.28;5060594;28;20329;-78
2021/12/11 01:46:44;;;;;;;36.70;20.00;;;;;;;3.78;96.82;100886.22;5044834;28;20029;-78
2021/12/11 01:49:13;;;;;;;39.00;20.58;;;;;;;3.78;96.93;100886.22;5054749;28;20030;-78
2021/12/11 01:51:47;;;;;;;43.58;21.67;;;;;;;3.77;96.87;100902.66;5081372;28;20032;-78
2021/12/11 01:54:20;;;;;;;33.83;19.15;;;;;;;3.78;96.89;100901.75;5069146;28;20037;-78
2021/12/11 01:56:49;;;;;;;37.78;19.00;;;;;;;3.76;96.72;100909.56;5081292;28;20099;-78
2021/12/11 01:59:20;;;;;;;36.53;19.75;;;;;;;3.75;96.65;100912.19;5080230;28;20462;-78
2021/12/11 02:02:10;;;;;;;37.03;20.08;;;;;;;3.75;96.57;100918.22;5044860;28;20243;-78
2021/12/11 02:04:38;;;;;;;38.13;20.70;;;;;;;3.75;96.55;100925.13;5065182;28;20060;-78
2021/12/11 02:07:07;;;;;;;34.22;18.23;;;;;;;3.75;96.64;100925.13;5066084;28;20040;-78
2021/12/11 02:09:34;;;;;;;35.25;19.65;;;;;;;3.75;96.51;100925.13;5057751;28;20045;-78
2021/12/11 02:12:09;;;;;;;41.13;19.58;;;;;;;3.74;96.50;100929.44;5060918;28;20040;-78
2021/12/11 02:14:40;;;;;;;36.58;18.77;;;;;;;3.73;96.53;100939.81;5076662;28;20036;-78
2021/12/11 02:17:05;;;;;;;30.83;18.48;;;;;;;3.72;96.47;100941.56;5065071;28;20029;-78
2021/12/11 02:19:33;;;;;;;31.77;18.65;;;;;;;3.71;96.28;100945.03;5060956;28;20123;-78
2021/12/11 02:22:01;;;;;;;35.17;19.33;;;;;;;3.68;96.24;100950.25;5080942;28;20024;-78
2021/12/11 02:24:38;;;;;;;32.23;19.30;;;;;;;3.68;96.05;100954.56;5065547;28;20045;-77
2021/12/11 02:27:10;;;;;;;38.58;19.95;;;;;;;3.66;96.12;100962.34;5063997;28;20292;-78
2021/12/11 02:29:43;;;;;;;30.85;18.30;;;;;;;3.67;96.17;100961.47;5079212;28;20319;-78
2021/12/11 02:32:28;;;;;;;29.50;17.35;;;;;;;3.67;96.10;100966.63;5061597;28;20063;-77
2021/12/11 02:35:14;;;;;;;32.85;18.42;;;;;;;3.67;96.20;100970.97;5047181;28;20233;-78
2021/12/11 02:37:45;;;;;;;39.35;19.38;;;;;;;3.65;96.06;100977.00;5063025;28;20013;-78
2021/12/11 02:40:16;;;;;;;33.35;18.63;;;;;;;3.64;95.96;100982.22;5075135;28;20059;-78
2021/12/11 02:42:58;;;;;;;31.65;18.15;;;;;;;3.64;96.01;100983.09;5061071;28;20032;-78
2021/12/11 02:45:29;;;;;;;30.58;17.48;;;;;;;3.63;96.11;100988.28;5065370;28;20020;-78
2021/12/11 02:48:00;;;;;;;27.63;17.17;;;;;;;3.64;95.91;100988.25;5079408;28;20036;-78
2021/12/11 02:50:35;;;;;;;31.50;17.20;;;;;;;3.63;96.03;100998.63;5065816;28;20103;-78
2021/12/11 02:53:05;;;;;;;30.30;16.65;;;;;;;3.62;95.97;100991.72;5070618;28;20128;-77
2021/12/11 02:55:38;;;;;;;31.38;17.00;;;;;;;3.61;95.82;100997.78;5074903;28;20385;-78
2021/12/11 02:58:07;;;;;;;27.65;15.63;;;;;;;3.60;95.85;101004.72;5061651;28;20036;-77
2021/12/11 03:00:39;;;;;;;31.73;18.05;;;;;;;3.59;95.79;100994.38;5064004;28;20044;-77
2021/12/11 03:03:07;;;;;;;25.95;15.85;;;;;;;3.56;95.65;100997.81;5069942;28;20104;-77
2021/12/11 03:05:47;;;;;;;28.10;16.17;;;;;;;3.56;95.78;101002.16;5027418;28;20024;-78
2021/12/11 03:08:15;;;;;;;26.73;15.02;;;;;;;3.54;95.62;101007.34;5060004;28;20036;-78
2021/12/11 03:10:42;;;;;;;31.80;15.20;;;;;;;3.55;95.65;101003.03;5067924;28;20039;-78
2021/12/11 03:13:08;;;;;;;25.42;15.85;;;;;;;3.52;95.42;100997.88;5068956;28;20240;-78
2021/12/11 03:15:33;;;;;;;28.83;15.60;;;;;;;3.51;95.52;101002.22;5061210;28;20040;-78
2021/12/11 03:17:59;;;;;;;26.55;16.00;;;;;;;3.51;95.62;101004.81;5062640;28;20021;-78
2021/12/11 03:20:27;;;;;;;29.23;17.40;;;;;;;3.49;95.53;101003.06;5079997;28;20032;-78
2021/12/11 03:22:52;;;;;;;29.50;15.98;;;;;;;3.48;95.40;101010.00;5067087;28;20125;-78
2021/12/11 03:25:21;;;;;;;27.05;15.63;;;;;;;3.46;95.50;101009.16;5079167;28;20351;-78
2021/12/11 03:27:47;;;;;;;26.77;15.77;;;;;;;3.44;95.38;101016.06;5059368;28;20088;-78
2021/12/11 03:30:15;;;;;;;32.63;17.40;;;;;;;3.43;95.25;101019.53;5043414;28;20044;-78
2021/12/11 03:32:40;;;;;;;27.88;16.27;;;;;;;3.43;95.36;101019.53;5043639;28;20033;-78
2021/12/11 03:35:07;;;;;;;30.58;15.43;;;;;;;3.41;95.34;101021.28;5042635;28;20045;-78
2021/12/11 03:37:32;;;;;;;26.35;15.60;;;;;;;3.40;95.23;101016.94;5051165;28;20382;-78
2021/12/11 03:39:57;;;;;;;23.70;15.25;;;;;;;3.40;95.34;101019.53;5061222;28;20040;-78
2021/12/11 03:42:28;;;;;;;24.13;15.30;;;;;;;3.39;95.28;101018.69;5077762;28;20112;-78
2021/12/11 03:44:53;;;;;;;28.40;15.10;;;;;;;3.41;95.54;101029.03;5078750;28;20216;-78
2021/12/11 03:47:22;;;;;;;25.30;15.35;;;;;;;3.40;95.40;101025.59;5048873;28;20075;-78
2021/12/11 03:49:48;;;;;;;25.92;14.98;;;;;;;3.40;95.47;101032.47;5041734;28;20262;-78
2021/12/11 03:52:15;;;;;;;27.02;15.07;;;;;;;3.40;95.38;101024.72;5070653;28;20041;-78
2021/12/11 03:54:42;;;;;;;27.33;16.20;;;;;;;3.41;95.54;101036.81;5062046;28;20036;-78
2021/12/11 03:57:09;;;;;;;24.27;15.18;;;;;;;3.42;95.57;101034.22;5069043;28;20044;-78
2021/12/11 03:59:35;;;;;;;24.77;14.90;;;;;;;3.43;95.70;101040.25;5057549;28;20025;-78
2021/12/11 04:02:05;;;;;;;26.30;15.35;;;;;;;3.46;95.84;101043.66;5069056;28;20142;-77
2021/12/11 04:04:36;;;;;;;26.73;15.75;;;;;;;3.50;96.01;101043.66;5078188;28;20037;-77
2021/12/11 04:07:03;;;;;;;28.10;16.00;;;;;;;3.52;96.07;101034.13;5069920;28;20294;-78
2021/12/11 04:09:28;;;;;;;28.45;16.00;;;;;;;3.53;96.02;101044.47;5041680;28;20354;-78
2021/12/11 04:12:01;;;;;;;29.30;16.95;;;;;;;3.55;96.09;101040.16;5066067;28;20036;-78
2021/12/11 04:14:29;;;;;;;30.48;15.98;;;;;;;3.55;96.19;101042.72;5078601;28;20223;-77
2021/12/11 04:16:54;;;;;;;23.33;14.70;;;;;;;3.56;95.90;101049.63;5071635;28;20219;-78
2021/12/11 04:19:19;;;;;;;29.08;15.32;;;;;;;3.55;96.19;101055.69;5059371;28;20134;-78
2021/12/11 04:21:46;;;;;;;23.98;14.88;;;;;;;3.55;96.04;101055.69;5062013;28;20040;-78
2021/12/11 04:24:12;;;;;;;24.98;14.77;;;;;;;3.56;96.11;101066.91;5077971;28;20056;-78
2021/12/11 04:26:38;;;;;;;26.00;14.23;;;;;;;3.56;96.01;101074.66;5070151;28;20411;-78
2021/12/11 04:29:04;;;;;;;28.02;15.77;;;;;;;3.57;96.21;101072.06;5078110;28;20036;-78
2021/12/11 04:31:30;;;;;;;31.63;15.32;;;;;;;3.56;96.18;101070.34;5070634;28;20040;-78
2021/12/11 04:33:58;;;;;;;23.92;14.68;;;;;;;3.56;96.31;101070.34;5061196;28;20365;-78
2021/12/11 04:36:26;;;;;;;25.67;15.18;;;;;;;3.58;96.28;101072.91;5070520;28;20068;-78
2021/12/11 04:38:51;;;;;;;26.38;15.07;;;;;;;3.58;96.19;101078.94;5040946;28;20025;-78
2021/12/11 04:41:24;;;;;;;29.40;15.50;;;;;;;3.59;96.29;101061.69;5033737;28;20028;-78
2021/12/11 04:43:50;;;;;;;22.98;13.38;;;;;;;3.58;96.31;101071.19;5041383;28;20020;-77
2021/12/11 04:46:16;;;;;;;23.90;13.57;;;;;;;3.60;96.19;101074.63;5041190;28;20024;-78
2021/12/11 04:51:20;;;;;;;23.60;11.88;;;;;;;3.61;96.34;101085.84;5071890;28;20033;-78
2021/12/11 04:54:10;;;;;;;24.50;12.88;;;;;;;3.62;96.30;101088.44;5073862;28;20055;-78
2021/12/11 05:07:56;;;;;;;20.88;10.18;;;;;;;3.71;96.61;101095.28;5075673;28;20025;-78
2021/12/11 05:10:37;;;;;;;22.02;8.68;;;;;;;3.73;96.71;101101.31;5059898;28;20030;-78
2021/12/11 05:13:03;;;;;;;14.10;8.68;;;;;;;3.75;96.79;101109.91;5043777;28;20339;-78
2021/12/11 05:15:35;;;;;;;17.67;8.70;;;;;;;3.76;96.88;101115.94;5060883;28;20351;-78
2021/12/11 05:18:00;;;;;;;15.75;8.00;;;;;;;3.79;96.82;101119.38;5069622;28;20047;-78
2021/12/11 05:20:28;;;;;;;17.30;7.43;;;;;;;3.81;96.91;101125.41;5057496;28;20323;-78
2021/12/11 05:22:53;;;;;;;13.60;6.57;;;;;;;3.83;97.02;101117.63;5058737;28;20427;-78
2021/12/11 05:25:19;;;;;;;12.43;5.85;;;;;;;3.85;97.21;101124.50;5057331;28;20033;-77
2021/12/11 05:27:44;;;;;;;16.85;5.97;;;;;;;3.88;97.12;101125.38;5060808;28;20135;-78
2021/12/11 05:30:17;;;;;;;14.07;4.72;;;;;;;3.91;97.07;101130.50;5077496;28;20316;-78
2021/12/11 05:32:42;;;;;;;16.33;4.82;;;;;;;3.90;97.05;101132.25;5073307;28;20036;-78
2021/12/11 05:35:08;;;;;;;12.70;4.20;;;;;;;3.92;97.31;101135.69;5040719;28;20047;-78
2021/12/11 05:37:34;;;;;;;18.98;3.60;;;;;;;3.94;97.45;101131.34;5058520;28;20093;-78
2021/12/11 05:39:59;;;;;;;9.88;2.55;;;;;;;3.97;97.41;101136.50;5065085;28;20082;-78
2021/12/11 05:42:25;;;;;;;12.55;2.65;;;;;;;3.99;97.48;101142.53;5057274;28;20106;-78
2021/12/11 05:44:50;;;;;;;11.45;1.33;;;;;;;4.02;97.60;101146.81;5057892;28;20041;-78
2021/12/11 05:47:16;;;;;;;15.18;1.73;;;;;;;4.04;97.75;101148.53;5057124;28;20037;-78
2021/12/11 05:49:43;;;;;;;7.93;1.50;;;;;;;4.08;97.58;101157.16;5059157;28;20051;-78
2021/12/11 05:52:09;;;;;;;9.45;1.33;;;;;;;4.11;97.75;101157.13;5077397;28;20039;-78
2021/12/11 05:54:35;;;;;;;5.45;1.15;;;;;;;4.15;97.74;101164.00;5059940;28;20032;-78
2021/12/11 05:57:03;;;;;;;10.35;1.40;;;;;;;4.20;97.72;101153.56;5060222;28;20020;-78
2021/12/11 05:59:29;;;;;;;3.90;0.63;;;;;;;4.25;97.64;101167.34;5074570;28;20405;-78
2021/12/11 06:02:08;;;;;;;11.63;1.95;;;;;;;4.28;97.72;101169.06;5057532;28;20237;-78
2021/12/11 06:04:34;;;;;;;4.90;1.10;;;;;;;4.33;97.56;101185.41;5056254;28;20079;-78
2021/12/11 06:06:59;;;;;;;5.35;1.38;;;;;;;4.37;97.53;101184.53;5073564;28;20020;-78
2021/12/11 06:09:25;;;;;;;14.35;1.02;;;;;;;4.44;97.52;101196.56;5058879;28;20037;-78
2021/12/11 06:11:58;;;;;;;11.40;1.15;;;;;;;4.48;97.55;101195.66;5058238;28;20033;-77
2021/12/11 06:14:23;;;;;;;8.27;0.90;;;;;;;4.51;97.40;101199.94;5070513;28;20094;-78
2021/12/11 06:16:53;;;;;;;4.13;0.90;;;;;;;4.53;97.43;101212.06;5059687;28;20032;-78
2021/12/11 06:19:21;;;;;;;8.85;1.02;;;;;;;4.55;97.35;101207.69;5056686;28;20249;-78
2021/12/11 06:21:46;;;;;;;5.90;1.02;;;;;;;4.58;97.38;101214.59;5041338;28;20410;-78
2021/12/11 06:24:12;;;;;;;6.90;1.02;;;;;;;4.61;97.38;101224.94;5063791;28;20111;-78
2021/12/11 06:26:37;;;;;;;4.75;0.70;;;;;;;4.66;97.44;101237.84;5081099;28;20326;-78
2021/12/11 06:29:03;;;;;;;3.78;0.73;;;;;;;4.67;97.24;101248.22;5071084;28;20036;-78
2021/12/11 06:31:28;;;;;;;9.07;0.98;;;;;;;4.68;97.46;101257.72;5060167;28;20401;-78
2021/12/11 06:33:54;;;;;;;6.28;0.80;;;;;;;4.71;97.39;101249.03;5072049;28;20235;-78
2021/12/11 06:36:20;;;;;;;5.90;1.05;;;;;;;4.74;97.14;101264.59;5080371;28;20089;-77
2021/12/11 06:38:50;;;;;;;3.78;0.50;;;;;;;4.74;97.05;101268.03;5059395;28;20041;-77
2021/12/11 06:41:17;;;;;;;6.90;0.95;;;;;;;4.75;96.95;101262.00;5071097;28;20024;-78
2021/12/11 06:43:43;;;;;;;1.00;0.55;;;;;;;4.76;96.91;101271.47;5077947;28;20086;-78
2021/12/11 06:46:08;;;;;;;2.65;0.50;;;;;;;4.76;96.70;101284.44;5099588;28;20035;-78
2021/12/11 06:48:34;;;;;;;5.18;0.77;;;;;;;4.77;96.79;101281.00;5076137;28;20343;-78
2021/12/11 06:50:59;;;;;;;1.90;0.60;;;;;;;4.77;96.51;101281.00;5055451;28;20044;-78
2021/12/11 06:53:28;;;;;;;3.92;0.63;;;;;;;4.76;96.80;101287.03;5079519;28;20310;-78
2021/12/11 06:55:53;;;;;;;0.73;0.40;;;;;;;4.75;96.69;101287.94;5056699;28;20021;-78
2021/12/11 06:58:19;;;;;;;5.40;0.60;;;;;;;4.76;96.60;101299.16;5073317;28;20096;-77
2021/12/11 07:00:44;;;;;;;3.67;0.60;;;;;;;4.77;96.66;101306.94;5058868;28;20040;-78
2021/12/11 07:03:10;;;;;;;2.25;0.68;;;;;;;4.77;96.81;101306.94;5059636;28;20048;-77
2021/12/11 07:05:37;;;;;;;4.13;0.65;;;;;;;4.78;96.56;101316.47;5065127;28;20055;-77
2021/12/11 07:08:06;;;;;;;4.18;0.85;;;;;;;4.79;96.71;101320.75;5078007;28;20041;-77
2021/12/11 07:10:32;;;;;;;2.08;0.70;;;;;;;4.81;96.70;101339.78;5079367;28;20052;-77
2021/12/11 07:12:57;;;;;;;8.63;1.05;;;;;;;4.83;96.73;101337.16;5079413;28;20040;-77
2021/12/11 07:15:23;;;;;;;2.10;0.85;;;;;;;4.83;96.79;101342.34;5079221;28;20044;-78
2021/12/11 07:17:48;;;;;;;8.45;0.90;;;;;;;4.84;96.84;101345.81;5070612;28;20279;-78
2021/12/11 07:20:14;;;;;;;1.85;1.00;;;;;;;4.84;96.91;101354.47;5060600;28;20320;-78
2021/12/11 07:22:41;;;;;;;8.15;0.80;;;;;;;4.85;96.96;101348.38;5053425;28;20029;-78
2021/12/11 07:25:18;;;;;;;3.85;0.80;;;;;;;4.87;96.83;101363.97;5065407;28;20033;-78
2021/12/11 07:27:44;;;;;;;3.97;1.17;;;;;;;4.88;97.04;101366.53;5073523;28;20062;-77
2021/12/11 07:30:10;;;;;;;3.03;0.85;;;;;;;4.88;97.09;101373.47;5059418;28;20293;-77
2021/12/11 07:32:35;;;;;;;5.78;1.77;;;;;;;4.88;97.14;101374.31;5065728;28;20045;-77
2021/12/11 07:35:01;;;;;;;6.43;0.93;;;;;;;4.89;97.21;101383.81;5055635;28;20029;-77
2021/12/11 07:37:26;;;;;;;4.68;0.68;;;;;;;4.92;97.22;101389.00;5048115;28;20390;-77
2021/12/11 07:39:52;;;;;;;9.73;1.40;;;;;;;4.93;97.44;101395.91;5068850;28;20034;-77
2021/12/11 07:42:17;;;;;;;2.58;0.68;;;;;;;4.94;97.55;101395.03;5063410;28;20094;-78
2021/12/11 07:44:42;;;;;;;6.65;1.25;;;;;;;4.94;97.58;101401.97;5056518;28;20346;-78
2021/12/11 07:47:08;;;;;;;6.47;1.05;;;;;;;4.94;97.65;101414.94;5060606;28;20055;-78
2021/12/11 07:49:34;;;;;;;8.30;1.52;;;;;;;4.95;97.50;101421.88;5065357;28;20040;-78
2021/12/11 07:51:59;;;;;;;5.78;1.23;;;;;;;4.96;97.78;101428.75;5075460;28;20193;-78
2021/12/11 07:54:24;;;;;;;8.20;1.90;;;;;;;4.95;97.72;101427.06;5076778;28;20040;-78
2021/12/11 07:56:52;;;;;;;7.70;2.58;;;;;;;4.96;97.77;101439.16;5069953;28;20062;-78
2021/12/11 07:59:18;;;;;;;7.18;2.60;;;;;;;4.97;97.92;101440.88;5056276;28;20036;-78
2021/12/11 08:01:45;;;;;;;17.08;2.72;;;;;;;4.96;97.88;101444.34;5075961;28;20109;-78
2021/12/11 08:04:11;;;;;;;4.63;1.92;;;;;;;4.98;97.99;101447.78;5073584;28;20078;-77
2021/12/11 08:06:36;;;;;;;7.45;2.88;;;;;;;4.99;97.98;101449.53;5070662;28;20320;-76
2021/12/11 08:09:04;;;;;;;11.32;3.10;;;;;;;4.99;98.17;101457.31;5067296;28;20041;-76
2021/12/11 08:11:29;;;;;;;15.18;4.40;;;;;;;4.99;98.08;101462.50;5075407;28;20051;-76
2021/12/11 08:13:56;;;;;;;15.77;5.25;;;;;;;4.99;98.17;101465.09;5075702;28;20032;-77
2021/12/11 08:16:25;;;;;;;22.15;5.53;;;;;;;5.00;98.10;101470.28;5045585;28;20028;-76
2021/12/11 08:18:52;;;;;;;16.77;5.45;;;;;;;5.01;98.04;101476.31;5072295;28;20067;-77
2021/12/11 08:21:18;;;;;;;11.63;4.57;;;;;;;5.00;98.18;101483.25;5057498;28;20024;-77
2021/12/11 08:23:46;;;;;;;18.67;6.22;;;;;;;5.01;98.15;101489.31;5071771;28;20240;-77
2021/12/11 08:26:15;;;;;;;10.95;5.18;;;;;;;5.01;98.30;101497.09;5075753;28;20182;-77
2021/12/11 08:28:40;;;;;;;16.20;5.72;;;;;;;5.02;98.13;101503.13;5075132;28;20032;-77
2021/12/11 08:31:06;;;;;;;13.25;5.28;;;;;;;5.01;98.06;101499.69;5075817;28;20046;-77
2021/12/11 08:33:31;;;;;;;9.40;5.88;;;;;;;5.03;97.99;101510.06;5038375;28;20028;-77
2021/12/11 08:35:56;;;;;;;12.57;5.50;;;;;;;5.03;98.23;101521.31;5076000;28;20346;-77
2021/12/11 08:38:22;;;;;;;10.45;6.15;;;;;;;5.02;98.23;101514.41;5075761;28;20169;-77
2021/12/11 08:40:50;;;;;;;16.75;6.28;;;;;;;5.04;98.23;101522.16;5054782;28;20139;-76
2021/12/11 08:43:16;;;;;;;12.40;5.88;;;;;;;5.02;98.19;101526.50;5068473;28;20044;-77
2021/12/11 08:45:45;;;;;;;15.55;6.55;;;;;;;5.01;98.17;101523.06;5071436;28;20037;-77
2021/12/11 08:48:14;;;;;;;;;;;;;;;5.02;98.11;101535.19;5073338;28;20218;-77
2021/12/11 08:50:41;;;;;;;13.95;6.85;;;;;;;5.04;97.99;101537.72;5071953;28;19923;-77
2021/12/11 08:53:06;;;;;;;17.73;6.65;;;;;;;5.03;98.13;101547.25;5075507;28;21136;-77
2021/12/11 08:55:36;;;;;;;15.85;6.45;;;;;;;5.04;97.88;101558.50;5060833;28;20032;-77
2021/12/11 08:58:03;;;;;;;11.52;6.78;;;;;;;5.03;98.02;101557.66;5069722;28;20040;-77
2021/12/11 09:00:31;;;;;;;14.80;7.03;;;;;;;5.02;97.85;101565.44;5044644;28;20055;-77
2021/12/11 09:03:25;;;;;;;11.50;7.00;;;;;;;5.01;98.01;101567.19;5055891;28;20052;-77
2021/12/11 09:06:12;;;;;;;14.60;6.65;;;;;;;5.00;97.94;101573.22;5070124;28;20240;-77
2021/12/11 09:08:57;;;;;;;20.40;7.50;;;;;;;4.99;97.77;101567.19;5055252;28;20056;-77
2021/12/11 09:11:29;;;;;;;15.15;7.50;;;;;;;5.00;97.99;101575.84;5065754;28;20100;-77
2021/12/11 09:14:19;;;;;;;14.50;7.30;;;;;;;4.99;97.76;101584.50;5045861;28;20089;-77
2021/12/11 09:16:54;;;;;;;12.52;6.93;;;;;;;4.98;97.93;101585.38;5062249;28;20045;-77
2021/12/11 09:19:35;;;;;;;18.90;7.82;;;;;;;4.96;97.85;101593.16;5066809;28;20039;-77
2021/12/11 09:22:14;;;;;;;15.95;7.95;;;;;;;4.94;97.87;101586.25;5055916;28;20059;-77
2021/12/11 09:24:48;;;;;;;15.05;7.88;;;;;;;4.93;97.75;101589.72;5071387;28;20122;-77
2021/12/11 09:27:26;;;;;;;15.73;7.93;;;;;;;4.93;97.52;101590.59;5053048;28;20056;-77
2021/12/11 09:29:56;;;;;;;16.92;8.50;;;;;;;4.93;97.71;101594.91;5070154;28;20059;-77
2021/12/11 09:32:25;;;;;;;17.77;7.60;;;;;;;4.93;97.53;101598.38;5068856;28;20346;-77
2021/12/11 09:35:00;;;;;;;14.63;7.82;;;;;;;4.93;97.41;101606.19;5052420;28;20063;-77
2021/12/11 09:37:26;;;;;;;10.82;7.55;;;;;;;4.93;97.50;101615.66;5054500;28;20043;-78
2021/12/11 09:39:57;;;;;;;20.27;8.40;;;;;;;4.94;97.52;101614.81;5069065;28;20029;-77
2021/12/11 09:42:23;;;;;;;20.23;8.48;;;;;;;4.94;97.47;101617.41;5051463;28;20044;-78
2021/12/11 09:45:01;;;;;;;15.83;8.30;;;;;;;4.94;97.67;101613.06;5056354;28;20028;-77
2021/12/11 09:47:30;;;;;;;13.10;6.90;;;;;;;4.94;97.46;101615.66;5057727;28;20170;-77
2021/12/11 09:49:59;;;;;;;;;;;;;;;4.97;97.68;101622.59;5062015;28;20088;-77
2021/12/11 09:52:25;;;;;;;16.42;7.85;;;;;;;4.97;97.70;101625.19;5060005;28;20127;-77
2021/12/11 09:55:00;;;;;;;14.82;8.38;;;;;;;4.97;97.64;101633.84;5062363;28;20298;-77
2021/12/11 09:57:29;;;;;;;17.00;8.15;;;;;;;4.99;97.66;101636.44;5062419;28;20059;-77
2021/12/11 09:59:55;;;;;;;17.63;7.63;;;;;;;4.99;97.65;101641.63;5069079;28;20074;-77
2021/12/11 10:02:24;;;;;;;16.42;7.88;;;;;;;5.02;97.71;101648.53;5060822;28;20040;-77
2021/12/11 10:04:59;;;;;;;21.17;8.63;;;;;;;5.03;97.83;101652.84;5059895;28;20157;-77
2021/12/11 10:07:34;;;;;;;10.57;7.50;;;;;;;5.05;98.03;101649.38;5069821;28;20029;-77
2021/12/11 10:10:21;;;;;;;17.23;8.40;;;;;;;5.07;97.96;101660.59;5059844;28;20399;-77
2021/12/11 10:12:50;;;;;;;19.40;8.90;;;;;;;5.11;98.00;101661.47;5059531;28;20887;-77
2021/12/11 10:15:45;;;;;;;18.20;7.75;;;;;;;5.12;98.14;101660.59;5029530;28;20054;-77
2021/12/11 10:18:13;;;;;;;20.85;8.15;;;;;;;5.14;98.08;101671.84;5053400;28;20055;-76
2021/12/11 10:20:49;;;;;;;17.92;8.57;;;;;;;5.16;98.26;101672.69;5049171;28;20261;-78
2021/12/11 10:23:18;;;;;;;17.67;8.10;;;;;;;5.18;98.27;101676.13;5072258;28;20028;-78
2021/12/11 10:25:44;;;;;;;18.70;8.73;;;;;;;5.19;98.37;101683.94;5052645;28;20051;-78
2021/12/11 10:28:12;;;;;;;19.52;8.40;;;;;;;5.20;98.22;101679.59;5064276;28;20033;-78
2021/12/11 10:30:41;;;;;;;16.08;8.88;;;;;;;5.22;98.55;101682.19;5053526;28;20064;-78
2021/12/11 10:33:07;;;;;;;16.70;8.27;;;;;;;5.24;98.54;101681.31;5043048;28;20356;-78
2021/12/11 10:35:35;;;;;;;21.88;8.73;;;;;;;5.26;98.48;101684.78;5069250;28;20037;-78
2021/12/11 10:38:03;;;;;;;20.40;9.95;;;;;;;5.27;98.59;101683.03;5067267;28;20033;-78
2021/12/11 10:40:31;;;;;;;17.38;9.00;;;;;;;5.28;98.67;101684.75;5048922;28;20111;-78
2021/12/11 10:43:07;;;;;;;24.55;9.70;;;;;;;5.29;98.64;101692.53;5062038;28;20373;-78
2021/12/11 10:45:32;;;;;;;18.50;9.63;;;;;;;5.29;98.67;101694.25;5062591;28;20242;-78
2021/12/11 10:48:00;;;;;;;18.38;9.23;;;;;;;5.30;98.56;101699.47;5059487;28;20107;-78
2021/12/11 10:50:46;;;;;;;22.03;9.73;;;;;;;5.31;98.64;101710.69;5069014;28;20028;-77
2021/12/11 10:53:13;;;;;;;21.00;9.30;;;;;;;5.31;98.58;101697.72;5041225;28;20298;-78
2021/12/11 10:55:39;;;;;;;17.05;8.50;;;;;;;5.32;98.72;101705.50;5054294;28;20032;-78
2021/12/11 10:58:09;;;;;;;20.67;9.95;;;;;;;5.35;98.60;101704.66;5043994;28;20055;-78
2021/12/11 11:00:43;;;;;;;17.08;8.98;;;;;;;5.37;98.82;101706.34;5046380;28;20055;-78
2021/12/11 11:03:08;;;;;;;19.55;8.25;;;;;;;5.40;99.01;101700.25;5063428;28;20025;-78
2021/12/11 11:05:34;;;;;;;16.17;8.05;;;;;;;5.42;99.11;101703.75;5043150;28;20054;-78
2021/12/11 11:08:00;;;;;;;14.25;6.65;;;;;;;5.44;98.97;101708.91;5073673;28;20037;-78
2021/12/11 11:10:31;;;;;;;13.95;5.50;;;;;;;5.46;99.12;101720.19;5057708;28;20049;-78
2021/12/11 11:12:58;;;;;;;14.73;5.05;;;;;;;5.47;98.99;101719.28;5045692;28;20029;-78
2021/12/11 11:15:23;;;;;;;21.60;5.40;;;;;;;5.46;98.78;101725.38;5055407;28;20045;-78
2021/12/11 11:17:50;;;;;;;14.18;3.80;;;;;;;5.46;99.03;101726.22;5037034;28;20416;-78
2021/12/11 11:20:19;;;;;;;18.90;5.32;;;;;;;5.45;98.95;101721.88;5057144;28;20130;-78
2021/12/11 11:22:45;;;;;;;13.68;4.35;;;;;;;5.46;98.93;101725.38;5057725;28;20223;-78
2021/12/11 11:25:23;;;;;;;12.95;3.58;;;;;;;5.45;99.00;101724.50;5075644;28;20064;-78
2021/12/11 11:27:51;;;;;;;12.63;3.40;;;;;;;5.47;99.13;101719.28;5070913;28;20286;-78
2021/12/11 11:30:20;;;;;;;13.05;3.58;;;;;;;5.48;99.06;101736.63;5083295;28;20046;-78
2021/12/11 11:32:46;;;;;;;14.32;3.22;;;;;;;5.49;98.98;101725.34;5062821;28;20254;-78
2021/12/11 11:35:14;;;;;;;8.15;2.80;;;;;;;5.51;98.88;101732.28;5053752;28;20163;-78
2021/12/11 11:37:40;;;;;;;12.40;2.80;;;;;;;5.53;98.72;101733.13;5081738;28;20378;-78
2021/12/11 11:40:08;;;;;;;7.47;2.65;;;;;;;5.55;98.81;101746.97;5047610;28;20017;-78
2021/12/11 11:42:35;;;;;;;6.88;2.42;;;;;;;5.58;98.93;101748.66;5083293;28;20131;-78
2021/12/11 11:45:00;;;;;;;8.32;2.40;;;;;;;5.61;98.64;101746.06;5080816;28;20025;-78
2021/12/11 11:47:26;;;;;;;14.20;2.63;;;;;;;5.66;98.76;101756.44;5050662;28;20067;-78